sensor_id;sensor_type;location;lat;lon;timestamp;P1;durP1;ratioP1;P2;durP2;ratioP2
65370;SDS011;58485;59.934;30.352;2022-08-01T00:00:45;8.93;;;6.80;;
65370;SDS011;58485;59.934;30.352;2022-08-01T00:01:36;7.72;;;7.03;;
65370;SDS011;58485;59.934;30.352;2022-08-01T00:02:29;9.93;;;6.30;;
65370;SDS011;58485;59.934;30.352;2022-08-01T00:03:21;7.97;;;7.13;;
65370;SDS011;58485;59.934;30.352;2022-08-01T00:04:13;8.20;;;7.30;;
65370;SDS011;58485;59.934;30.352;2022-08-01T00:05:05;7.82;;;7.10;;
65370;SDS011;58485;59.934;30.352;2022-08-01T00:05:59;7.72;;;6.93;;
65370;SDS011;58485;59.934;30.352;2022-08-01T00:06:50;11.38;;;7.70;;
65370;SDS011;58485;59.934;30.352;2022-08-01T00:07:42;9.93;;;7.15;;
65370;SDS011;58485;59.934;30.352;2022-08-01T00:08:34;10.00;;;6.88;;
65370;SDS011;58485;59.934;30.352;2022-08-01T00:09:26;7.75;;;6.78;;
65370;SDS011;58485;59.934;30.352;2022-08-01T00:10:17;6.82;;;6.32;;
65370;SDS011;58485;59.934;30.352;2022-08-01T00:11:10;6.68;;;6.03;;
65370;SDS011;58485;59.934;30.352;2022-08-01T00:12:01;9.80;;;5.97;;
65370;SDS011;58485;59.934;30.352;2022-08-01T00:12:55;6.57;;;5.78;;
65370;SDS011;58485;59.934;30.352;2022-08-01T00:13:46;6.32;;;5.72;;
65370;SDS011;58485;59.934;30.352;2022-08-01T00:14:38;6.20;;;5.60;;
65370;SDS011;58485;59.934;30.352;2022-08-01T00:15:31;6.78;;;6.10;;
65370;SDS011;58485;59.934;30.352;2022-08-01T00:16:22;8.68;;;6.40;;
65370;SDS011;58485;59.934;30.352;2022-08-01T00:17:13;7.22;;;6.43;;
65370;SDS011;58485;59.934;30.352;2022-08-01T00:18:07;6.32;;;5.72;;
65370;SDS011;58485;59.934;30.352;2022-08-01T00:18:58;6.65;;;5.63;;
65370;SDS011;58485;59.934;30.352;2022-08-01T00:19:50;7.72;;;6.30;;
65370;SDS011;58485;59.934;30.352;2022-08-01T00:20:42;10.18;;;6.18;;
65370;SDS011;58485;59.934;30.352;2022-08-01T00:21:34;7.30;;;5.57;;
65370;SDS011;58485;59.934;30.352;2022-08-01T00:22:25;6.53;;;6.03;;
65370;SDS011;58485;59.934;30.352;2022-08-01T00:23:18;8.73;;;6.45;;
65370;SDS011;58485;59.934;30.352;2022-08-01T00:24:09;6.70;;;6.10;;
65370;SDS011;58485;59.934;30.352;2022-08-01T00:25:02;6.97;;;5.85;;
65370;SDS011;58485;59.934;30.352;2022-08-01T00:25:55;14.35;;;6.38;;
65370;SDS011;58485;59.934;30.352;2022-08-01T00:26:48;8.25;;;5.45;;
65370;SDS011;58485;59.934;30.352;2022-08-01T00:27:39;6.80;;;5.95;;
65370;SDS011;58485;59.934;30.352;2022-08-01T00:28:31;11.70;;;6.53;;
65370;SDS011;58485;59.934;30.352;2022-08-01T00:29:22;12.98;;;5.72;;
65370;SDS011;58485;59.934;30.352;2022-08-01T00:30:15;6.18;;;5.68;;
65370;SDS011;58485;59.934;30.352;2022-08-01T00:31:06;6.60;;;5.90;;
65370;SDS011;58485;59.934;30.352;2022-08-01T00:31:57;7.40;;;5.47;;
65370;SDS011;58485;59.934;30.352;2022-08-01T00:32:50;12.63;;;6.95;;
65370;SDS011;58485;59.934;30.352;2022-08-01T00:33:42;7.05;;;5.95;;
65370;SDS011;58485;59.934;30.352;2022-08-01T00:34:35;9.18;;;5.55;;
65370;SDS011;58485;59.934;30.352;2022-08-01T00:35:26;6.53;;;5.93;;
65370;SDS011;58485;59.934;30.352;2022-08-01T00:36:18;7.07;;;5.28;;
65370;SDS011;58485;59.934;30.352;2022-08-01T00:37:09;6.50;;;5.88;;
65370;SDS011;58485;59.934;30.352;2022-08-01T00:38:02;6.85;;;5.30;;
65370;SDS011;58485;59.934;30.352;2022-08-01T00:38:53;6.28;;;5.60;;
65370;SDS011;58485;59.934;30.352;2022-08-01T00:39:45;5.68;;;5.18;;
65370;SDS011;58485;59.934;30.352;2022-08-01T00:40:36;7.40;;;5.93;;
65370;SDS011;58485;59.934;30.352;2022-08-01T00:41:28;10.15;;;6.07;;
65370;SDS011;58485;59.934;30.352;2022-08-01T00:42:20;8.32;;;6.15;;
65370;SDS011;58485;59.934;30.352;2022-08-01T00:43:11;7.38;;;5.68;;
65370;SDS011;58485;59.934;30.352;2022-08-01T00:44:04;8.80;;;5.30;;
65370;SDS011;58485;59.934;30.352;2022-08-01T00:44:56;6.30;;;5.70;;
65370;SDS011;58485;59.934;30.352;2022-08-01T00:45:48;6.47;;;5.53;;
65370;SDS011;58485;59.934;30.352;2022-08-01T00:46:39;6.40;;;5.25;;
65370;SDS011;58485;59.934;30.352;2022-08-01T00:47:32;6.05;;;5.45;;
65370;SDS011;58485;59.934;30.352;2022-08-01T00:48:23;9.88;;;5.60;;
65370;SDS011;58485;59.934;30.352;2022-08-01T00:49:17;5.80;;;5.30;;
65370;SDS011;58485;59.934;30.352;2022-08-01T00:50:09;10.52;;;5.20;;
65370;SDS011;58485;59.934;30.352;2022-08-01T00:51:02;6.82;;;4.88;;
65370;SDS011;58485;59.934;30.352;2022-08-01T00:51:54;5.72;;;5.25;;
65370;SDS011;58485;59.934;30.352;2022-08-01T00:52:48;15.00;;;6.05;;
65370;SDS011;58485;59.934;30.352;2022-08-01T00:53:39;5.55;;;5.00;;
65370;SDS011;58485;59.934;30.352;2022-08-01T00:54:32;4.85;;;4.43;;
65370;SDS011;58485;59.934;30.352;2022-08-01T00:55:23;6.63;;;5.68;;
65370;SDS011;58485;59.934;30.352;2022-08-01T00:56:16;5.18;;;4.72;;
65370;SDS011;58485;59.934;30.352;2022-08-01T00:57:07;6.32;;;4.85;;
65370;SDS011;58485;59.934;30.352;2022-08-01T00:58:00;7.25;;;5.40;;
65370;SDS011;58485;59.934;30.352;2022-08-01T00:58:51;7.72;;;5.47;;
65370;SDS011;58485;59.934;30.352;2022-08-01T00:59:44;5.53;;;4.93;;
65370;SDS011;58485;59.934;30.352;2022-08-01T01:00:35;5.63;;;5.22;;
65370;SDS011;58485;59.934;30.352;2022-08-01T01:01:28;9.82;;;4.97;;
65370;SDS011;58485;59.934;30.352;2022-08-01T01:02:19;5.65;;;5.07;;
65370;SDS011;58485;59.934;30.352;2022-08-01T01:03:11;8.18;;;5.18;;
65370;SDS011;58485;59.934;30.352;2022-08-01T01:04:02;8.90;;;5.20;;
65370;SDS011;58485;59.934;30.352;2022-08-01T01:04:56;5.13;;;4.72;;
65370;SDS011;58485;59.934;30.352;2022-08-01T01:05:49;10.48;;;5.00;;
65370;SDS011;58485;59.934;30.352;2022-08-01T01:06:53;5.65;;;5.00;;
65370;SDS011;58485;59.934;30.352;2022-08-01T01:07:53;5.35;;;4.82;;
65370;SDS011;58485;59.934;30.352;2022-08-01T01:08:53;5.43;;;4.93;;
65370;SDS011;58485;59.934;30.352;2022-08-01T01:09:58;5.80;;;5.30;;
65370;SDS011;58485;59.934;30.352;2022-08-01T01:10:55;5.63;;;4.68;;
65370;SDS011;58485;59.934;30.352;2022-08-01T01:11:56;8.27;;;4.55;;
65370;SDS011;58485;59.934;30.352;2022-08-01T01:12:55;6.32;;;4.80;;
65370;SDS011;58485;59.934;30.352;2022-08-01T01:13:57;8.95;;;5.30;;
65370;SDS011;58485;59.934;30.352;2022-08-01T01:14:56;6.88;;;4.65;;
65370;SDS011;58485;59.934;30.352;2022-08-01T01:15:58;5.30;;;4.80;;
65370;SDS011;58485;59.934;30.352;2022-08-01T01:16:51;7.97;;;5.30;;
65370;SDS011;58485;59.934;30.352;2022-08-01T01:17:45;6.65;;;5.18;;
65370;SDS011;58485;59.934;30.352;2022-08-01T01:18:43;5.07;;;4.65;;
65370;SDS011;58485;59.934;30.352;2022-08-01T01:19:39;7.95;;;5.03;;
65370;SDS011;58485;59.934;30.352;2022-08-01T01:20:38;5.40;;;5.00;;
65370;SDS011;58485;59.934;30.352;2022-08-01T01:21:39;6.60;;;5.38;;
65370;SDS011;58485;59.934;30.352;2022-08-01T01:22:53;6.75;;;4.90;;
65370;SDS011;58485;59.934;30.352;2022-08-01T01:23:54;6.80;;;4.82;;
65370;SDS011;58485;59.934;30.352;2022-08-01T01:25:03;5.78;;;5.38;;
65370;SDS011;58485;59.934;30.352;2022-08-01T01:26:07;6.00;;;5.07;;
65370;SDS011;58485;59.934;30.352;2022-08-01T01:27:16;5.20;;;4.80;;
65370;SDS011;58485;59.934;30.352;2022-08-01T01:28:20;5.40;;;4.90;;
65370;SDS011;58485;59.934;30.352;2022-08-01T01:29:27;6.78;;;4.97;;
65370;SDS011;58485;59.934;30.352;2022-08-01T01:30:23;6.00;;;4.95;;
65370;SDS011;58485;59.934;30.352;2022-08-01T01:31:19;9.85;;;5.03;;
65370;SDS011;58485;59.934;30.352;2022-08-01T01:32:13;7.88;;;4.72;;
65370;SDS011;58485;59.934;30.352;2022-08-01T01:33:08;6.78;;;5.05;;
65370;SDS011;58485;59.934;30.352;2022-08-01T01:34:02;6.47;;;4.85;;
65370;SDS011;58485;59.934;30.352;2022-08-01T01:34:56;7.88;;;5.22;;
65370;SDS011;58485;59.934;30.352;2022-08-01T01:35:51;8.77;;;5.68;;
65370;SDS011;58485;59.934;30.352;2022-08-01T01:36:47;8.65;;;5.57;;
65370;SDS011;58485;59.934;30.352;2022-08-01T01:37:41;6.90;;;4.70;;
65370;SDS011;58485;59.934;30.352;2022-08-01T01:38:36;7.30;;;4.63;;
65370;SDS011;58485;59.934;30.352;2022-08-01T01:39:33;6.13;;;4.63;;
65370;SDS011;58485;59.934;30.352;2022-08-01T01:40:26;6.60;;;5.03;;
65370;SDS011;58485;59.934;30.352;2022-08-01T01:41:21;5.72;;;4.50;;
65370;SDS011;58485;59.934;30.352;2022-08-01T01:42:13;7.97;;;4.63;;
65370;SDS011;58485;59.934;30.352;2022-08-01T01:43:09;6.60;;;4.13;;
65370;SDS011;58485;59.934;30.352;2022-08-01T01:44:02;7.25;;;4.45;;
65370;SDS011;58485;59.934;30.352;2022-08-01T01:44:58;5.40;;;4.90;;
65370;SDS011;58485;59.934;30.352;2022-08-01T01:45:54;4.90;;;4.60;;
65370;SDS011;58485;59.934;30.352;2022-08-01T01:46:47;5.65;;;4.82;;
65370;SDS011;58485;59.934;30.352;2022-08-01T01:47:40;6.13;;;4.75;;
65370;SDS011;58485;59.934;30.352;2022-08-01T01:48:35;10.27;;;4.90;;
65370;SDS011;58485;59.934;30.352;2022-08-01T01:49:27;6.07;;;4.85;;
65370;SDS011;58485;59.934;30.352;2022-08-01T01:50:21;6.65;;;4.50;;
65370;SDS011;58485;59.934;30.352;2022-08-01T01:51:15;5.70;;;4.20;;
65370;SDS011;58485;59.934;30.352;2022-08-01T01:52:09;5.47;;;4.97;;
65370;SDS011;58485;59.934;30.352;2022-08-01T01:53:03;4.97;;;4.57;;
65370;SDS011;58485;59.934;30.352;2022-08-01T01:53:57;5.68;;;4.32;;
65370;SDS011;58485;59.934;30.352;2022-08-01T01:54:50;6.85;;;4.22;;
65370;SDS011;58485;59.934;30.352;2022-08-01T01:55:44;8.15;;;4.75;;
65370;SDS011;58485;59.934;30.352;2022-08-01T01:56:38;7.68;;;5.43;;
65370;SDS011;58485;59.934;30.352;2022-08-01T01:57:41;4.90;;;4.43;;
65370;SDS011;58485;59.934;30.352;2022-08-01T01:58:34;5.68;;;4.28;;
65370;SDS011;58485;59.934;30.352;2022-08-01T01:59:30;5.15;;;4.63;;
65370;SDS011;58485;59.934;30.352;2022-08-01T02:00:26;5.25;;;4.22;;
65370;SDS011;58485;59.934;30.352;2022-08-01T02:01:21;15.27;;;4.70;;
65370;SDS011;58485;59.934;30.352;2022-08-01T02:02:15;6.15;;;4.32;;
65370;SDS011;58485;59.934;30.352;2022-08-01T02:03:09;10.88;;;4.75;;
65370;SDS011;58485;59.934;30.352;2022-08-01T02:04:02;7.82;;;4.45;;
65370;SDS011;58485;59.934;30.352;2022-08-01T02:04:55;6.80;;;4.32;;
65370;SDS011;58485;59.934;30.352;2022-08-01T02:05:48;4.50;;;4.10;;
65370;SDS011;58485;59.934;30.352;2022-08-01T02:06:42;8.18;;;4.40;;
65370;SDS011;58485;59.934;30.352;2022-08-01T02:07:36;4.80;;;4.40;;
65370;SDS011;58485;59.934;30.352;2022-08-01T02:08:30;4.97;;;4.57;;
65370;SDS011;58485;59.934;30.352;2022-08-01T02:09:23;6.97;;;4.20;;
65370;SDS011;58485;59.934;30.352;2022-08-01T02:10:17;7.40;;;4.80;;
65370;SDS011;58485;59.934;30.352;2022-08-01T02:11:10;9.98;;;4.60;;
65370;SDS011;58485;59.934;30.352;2022-08-01T02:12:11;6.97;;;4.10;;
65370;SDS011;58485;59.934;30.352;2022-08-01T02:13:25;4.65;;;4.25;;
65370;SDS011;58485;59.934;30.352;2022-08-01T02:14:17;5.68;;;4.47;;
65370;SDS011;58485;59.934;30.352;2022-08-01T02:15:11;9.52;;;4.78;;
65370;SDS011;58485;59.934;30.352;2022-08-01T02:16:04;8.88;;;4.88;;
65370;SDS011;58485;59.934;30.352;2022-08-01T02:16:58;4.15;;;3.75;;
65370;SDS011;58485;59.934;30.352;2022-08-01T02:17:50;4.40;;;4.00;;
65370;SDS011;58485;59.934;30.352;2022-08-01T02:18:44;5.13;;;3.80;;
65370;SDS011;58485;59.934;30.352;2022-08-01T02:19:36;4.30;;;3.90;;
65370;SDS011;58485;59.934;30.352;2022-08-01T02:20:29;16.83;;;4.60;;
65370;SDS011;58485;59.934;30.352;2022-08-01T02:21:23;5.75;;;4.15;;
65370;SDS011;58485;59.934;30.352;2022-08-01T02:22:21;6.53;;;4.20;;
65370;SDS011;58485;59.934;30.352;2022-08-01T02:23:19;4.72;;;4.32;;
65370;SDS011;58485;59.934;30.352;2022-08-01T02:24:14;4.30;;;3.90;;
65370;SDS011;58485;59.934;30.352;2022-08-01T02:25:13;5.68;;;4.38;;
65370;SDS011;58485;59.934;30.352;2022-08-01T02:26:13;8.00;;;4.28;;
65370;SDS011;58485;59.934;30.352;2022-08-01T02:27:07;7.35;;;4.80;;
65370;SDS011;58485;59.934;30.352;2022-08-01T02:28:04;12.88;;;4.57;;
65370;SDS011;58485;59.934;30.352;2022-08-01T02:29:02;4.97;;;4.45;;
65370;SDS011;58485;59.934;30.352;2022-08-01T02:30:00;4.43;;;4.00;;
65370;SDS011;58485;59.934;30.352;2022-08-01T02:30:56;8.07;;;4.55;;
65370;SDS011;58485;59.934;30.352;2022-08-01T02:31:57;5.93;;;4.07;;
65370;SDS011;58485;59.934;30.352;2022-08-01T02:32:51;5.85;;;4.70;;
65370;SDS011;58485;59.934;30.352;2022-08-01T02:33:53;8.15;;;4.22;;
65370;SDS011;58485;59.934;30.352;2022-08-01T02:34:52;6.53;;;4.18;;
65370;SDS011;58485;59.934;30.352;2022-08-01T02:35:48;6.07;;;3.92;;
65370;SDS011;58485;59.934;30.352;2022-08-01T02:36:43;4.78;;;4.20;;
65370;SDS011;58485;59.934;30.352;2022-08-01T02:37:38;7.13;;;4.18;;
65370;SDS011;58485;59.934;30.352;2022-08-01T02:38:31;5.32;;;4.07;;
65370;SDS011;58485;59.934;30.352;2022-08-01T02:39:25;5.32;;;3.80;;
65370;SDS011;58485;59.934;30.352;2022-08-01T02:40:19;3.88;;;3.58;;
65370;SDS011;58485;59.934;30.352;2022-08-01T02:41:14;10.80;;;3.78;;
65370;SDS011;58485;59.934;30.352;2022-08-01T02:42:09;4.45;;;4.05;;
65370;SDS011;58485;59.934;30.352;2022-08-01T02:43:04;5.85;;;4.05;;
65370;SDS011;58485;59.934;30.352;2022-08-01T02:43:58;3.88;;;3.50;;
65370;SDS011;58485;59.934;30.352;2022-08-01T02:44:53;3.85;;;3.55;;
65370;SDS011;58485;59.934;30.352;2022-08-01T02:45:47;7.72;;;3.90;;
65370;SDS011;58485;59.934;30.352;2022-08-01T02:46:45;4.70;;;4.30;;
65370;SDS011;58485;59.934;30.352;2022-08-01T02:47:44;4.25;;;3.85;;
65370;SDS011;58485;59.934;30.352;2022-08-01T02:48:39;5.50;;;4.40;;
65370;SDS011;58485;59.934;30.352;2022-08-01T02:49:33;5.50;;;4.13;;
65370;SDS011;58485;59.934;30.352;2022-08-01T02:50:28;4.15;;;3.60;;
65370;SDS011;58485;59.934;30.352;2022-08-01T02:51:21;6.25;;;4.10;;
65370;SDS011;58485;59.934;30.352;2022-08-01T02:52:16;4.47;;;4.07;;
65370;SDS011;58485;59.934;30.352;2022-08-01T02:53:10;4.78;;;4.35;;
65370;SDS011;58485;59.934;30.352;2022-08-01T02:54:05;5.45;;;4.53;;
65370;SDS011;58485;59.934;30.352;2022-08-01T02:54:58;3.92;;;3.63;;
65370;SDS011;58485;59.934;30.352;2022-08-01T02:55:52;3.90;;;3.50;;
65370;SDS011;58485;59.934;30.352;2022-08-01T02:56:44;6.57;;;3.70;;
65370;SDS011;58485;59.934;30.352;2022-08-01T02:57:38;4.43;;;4.03;;
65370;SDS011;58485;59.934;30.352;2022-08-01T02:58:32;3.80;;;3.50;;
65370;SDS011;58485;59.934;30.352;2022-08-01T02:59:27;4.70;;;4.05;;
65370;SDS011;58485;59.934;30.352;2022-08-01T03:00:20;3.58;;;3.20;;
65370;SDS011;58485;59.934;30.352;2022-08-01T03:01:14;4.13;;;3.75;;
65370;SDS011;58485;59.934;30.352;2022-08-01T03:02:07;7.07;;;4.00;;
65370;SDS011;58485;59.934;30.352;2022-08-01T03:03:02;6.60;;;3.42;;
65370;SDS011;58485;59.934;30.352;2022-08-01T03:03:55;5.15;;;3.88;;
65370;SDS011;58485;59.934;30.352;2022-08-01T03:04:48;5.47;;;3.85;;
65370;SDS011;58485;59.934;30.352;2022-08-01T03:05:42;4.85;;;3.70;;
65370;SDS011;58485;59.934;30.352;2022-08-01T03:06:35;3.97;;;3.63;;
65370;SDS011;58485;59.934;30.352;2022-08-01T03:07:28;5.88;;;3.97;;
65370;SDS011;58485;59.934;30.352;2022-08-01T03:08:21;4.32;;;3.92;;
65370;SDS011;58485;59.934;30.352;2022-08-01T03:09:14;4.35;;;3.70;;
65370;SDS011;58485;59.934;30.352;2022-08-01T03:10:08;5.82;;;4.22;;
65370;SDS011;58485;59.934;30.352;2022-08-01T03:11:01;4.40;;;3.83;;
65370;SDS011;58485;59.934;30.352;2022-08-01T03:11:54;6.85;;;4.05;;
65370;SDS011;58485;59.934;30.352;2022-08-01T03:12:49;4.35;;;3.95;;
65370;SDS011;58485;59.934;30.352;2022-08-01T03:13:42;4.85;;;4.10;;
65370;SDS011;58485;59.934;30.352;2022-08-01T03:14:38;3.85;;;3.38;;
65370;SDS011;58485;59.934;30.352;2022-08-01T03:15:32;4.93;;;3.80;;
65370;SDS011;58485;59.934;30.352;2022-08-01T03:16:26;3.50;;;3.17;;
65370;SDS011;58485;59.934;30.352;2022-08-01T03:17:22;3.60;;;3.17;;
65370;SDS011;58485;59.934;30.352;2022-08-01T03:18:17;4.28;;;3.50;;
65370;SDS011;58485;59.934;30.352;2022-08-01T03:19:11;8.30;;;3.97;;
65370;SDS011;58485;59.934;30.352;2022-08-01T03:20:03;8.93;;;3.58;;
65370;SDS011;58485;59.934;30.352;2022-08-01T03:20:58;4.07;;;3.67;;
65370;SDS011;58485;59.934;30.352;2022-08-01T03:21:51;4.78;;;3.95;;
65370;SDS011;58485;59.934;30.352;2022-08-01T03:22:45;4.32;;;3.47;;
65370;SDS011;58485;59.934;30.352;2022-08-01T03:23:38;3.60;;;3.30;;
65370;SDS011;58485;59.934;30.352;2022-08-01T03:24:32;3.53;;;3.22;;
65370;SDS011;58485;59.934;30.352;2022-08-01T03:25:25;6.75;;;3.17;;
65370;SDS011;58485;59.934;30.352;2022-08-01T03:26:19;3.67;;;3.28;;
65370;SDS011;58485;59.934;30.352;2022-08-01T03:27:10;5.35;;;3.33;;
65370;SDS011;58485;59.934;30.352;2022-08-01T03:28:04;3.45;;;3.15;;
65370;SDS011;58485;59.934;30.352;2022-08-01T03:28:59;6.57;;;4.10;;
65370;SDS011;58485;59.934;30.352;2022-08-01T03:29:56;6.45;;;2.97;;
65370;SDS011;58485;59.934;30.352;2022-08-01T03:30:50;4.03;;;3.60;;
65370;SDS011;58485;59.934;30.352;2022-08-01T03:31:43;3.25;;;3.00;;
65370;SDS011;58485;59.934;30.352;2022-08-01T03:32:36;3.60;;;3.25;;
65370;SDS011;58485;59.934;30.352;2022-08-01T03:33:30;4.55;;;3.40;;
65370;SDS011;58485;59.934;30.352;2022-08-01T03:34:22;5.88;;;3.28;;
65370;SDS011;58485;59.934;30.352;2022-08-01T03:35:14;4.05;;;3.30;;
65370;SDS011;58485;59.934;30.352;2022-08-01T03:36:06;4.85;;;3.08;;
65370;SDS011;58485;59.934;30.352;2022-08-01T03:37:03;3.22;;;2.92;;
65370;SDS011;58485;59.934;30.352;2022-08-01T03:38:01;7.20;;;4.15;;
65370;SDS011;58485;59.934;30.352;2022-08-01T03:38:54;4.15;;;3.33;;
65370;SDS011;58485;59.934;30.352;2022-08-01T03:39:52;3.80;;;3.35;;
65370;SDS011;58485;59.934;30.352;2022-08-01T03:40:49;6.88;;;3.42;;
65370;SDS011;58485;59.934;30.352;2022-08-01T03:41:46;3.55;;;3.25;;
65370;SDS011;58485;59.934;30.352;2022-08-01T03:42:44;4.05;;;3.38;;
65370;SDS011;58485;59.934;30.352;2022-08-01T03:43:40;3.88;;;3.47;;
65370;SDS011;58485;59.934;30.352;2022-08-01T03:44:36;3.65;;;3.28;;
65370;SDS011;58485;59.934;30.352;2022-08-01T03:45:32;3.05;;;2.85;;
65370;SDS011;58485;59.934;30.352;2022-08-01T03:46:29;4.82;;;3.28;;
65370;SDS011;58485;59.934;30.352;2022-08-01T03:47:28;3.38;;;2.95;;
65370;SDS011;58485;59.934;30.352;2022-08-01T03:48:22;3.53;;;3.00;;
65370;SDS011;58485;59.934;30.352;2022-08-01T03:49:22;3.50;;;3.20;;
65370;SDS011;58485;59.934;30.352;2022-08-01T03:50:16;4.45;;;2.92;;
65370;SDS011;58485;59.934;30.352;2022-08-01T03:51:12;3.58;;;3.28;;
65370;SDS011;58485;59.934;30.352;2022-08-01T03:52:06;4.38;;;3.25;;
65370;SDS011;58485;59.934;30.352;2022-08-01T03:53:00;4.25;;;3.40;;
65370;SDS011;58485;59.934;30.352;2022-08-01T03:53:53;3.55;;;3.25;;
65370;SDS011;58485;59.934;30.352;2022-08-01T03:54:47;5.47;;;3.28;;
65370;SDS011;58485;59.934;30.352;2022-08-01T03:55:42;3.15;;;2.95;;
65370;SDS011;58485;59.934;30.352;2022-08-01T03:56:35;3.63;;;2.95;;
65370;SDS011;58485;59.934;30.352;2022-08-01T03:57:28;3.90;;;3.28;;
65370;SDS011;58485;59.934;30.352;2022-08-01T03:58:21;3.75;;;3.45;;
65370;SDS011;58485;59.934;30.352;2022-08-01T03:59:12;6.68;;;3.35;;
65370;SDS011;58485;59.934;30.352;2022-08-01T04:00:07;4.78;;;3.25;;
65370;SDS011;58485;59.934;30.352;2022-08-01T04:00:59;5.80;;;3.08;;
65370;SDS011;58485;59.934;30.352;2022-08-01T04:01:52;2.55;;;2.38;;
65370;SDS011;58485;59.934;30.352;2022-08-01T04:02:45;3.75;;;2.80;;
65370;SDS011;58485;59.934;30.352;2022-08-01T04:03:38;3.63;;;3.35;;
65370;SDS011;58485;59.934;30.352;2022-08-01T04:04:31;5.57;;;2.60;;
65370;SDS011;58485;59.934;30.352;2022-08-01T04:05:24;8.77;;;3.30;;
65370;SDS011;58485;59.934;30.352;2022-08-01T04:06:16;3.15;;;2.85;;
65370;SDS011;58485;59.934;30.352;2022-08-01T04:07:20;2.75;;;2.50;;
65370;SDS011;58485;59.934;30.352;2022-08-01T04:08:13;3.70;;;3.20;;
65370;SDS011;58485;59.934;30.352;2022-08-01T04:09:06;4.25;;;2.78;;
65370;SDS011;58485;59.934;30.352;2022-08-01T04:09:58;5.65;;;3.00;;
65370;SDS011;58485;59.934;30.352;2022-08-01T04:10:50;2.92;;;2.70;;
65370;SDS011;58485;59.934;30.352;2022-08-01T04:11:41;3.95;;;2.90;;
65370;SDS011;58485;59.934;30.352;2022-08-01T04:12:33;3.33;;;2.92;;
65370;SDS011;58485;59.934;30.352;2022-08-01T04:13:25;5.85;;;2.90;;
65370;SDS011;58485;59.934;30.352;2022-08-01T04:14:17;3.03;;;2.72;;
65370;SDS011;58485;59.934;30.352;2022-08-01T04:15:08;2.72;;;2.53;;
65370;SDS011;58485;59.934;30.352;2022-08-01T04:16:01;3.75;;;2.95;;
65370;SDS011;58485;59.934;30.352;2022-08-01T04:16:52;3.35;;;2.90;;
65370;SDS011;58485;59.934;30.352;2022-08-01T04:17:44;3.22;;;2.92;;
65370;SDS011;58485;59.934;30.352;2022-08-01T04:18:36;4.53;;;2.88;;
65370;SDS011;58485;59.934;30.352;2022-08-01T04:19:28;3.00;;;2.80;;
65370;SDS011;58485;59.934;30.352;2022-08-01T04:20:20;2.72;;;2.53;;
65370;SDS011;58485;59.934;30.352;2022-08-01T04:21:13;2.72;;;2.53;;
65370;SDS011;58485;59.934;30.352;2022-08-01T04:22:04;2.95;;;2.50;;
65370;SDS011;58485;59.934;30.352;2022-08-01T04:22:58;3.00;;;2.80;;
65370;SDS011;58485;59.934;30.352;2022-08-01T04:23:49;2.67;;;2.47;;
65370;SDS011;58485;59.934;30.352;2022-08-01T04:24:46;2.70;;;2.50;;
65370;SDS011;58485;59.934;30.352;2022-08-01T04:25:43;5.10;;;2.92;;
65370;SDS011;58485;59.934;30.352;2022-08-01T04:26:37;3.15;;;2.55;;
65370;SDS011;58485;59.934;30.352;2022-08-01T04:27:31;4.30;;;3.05;;
65370;SDS011;58485;59.934;30.352;2022-08-01T04:28:27;2.95;;;2.35;;
65370;SDS011;58485;59.934;30.352;2022-08-01T04:29:20;2.58;;;2.38;;
65370;SDS011;58485;59.934;30.352;2022-08-01T04:30:14;3.10;;;2.85;;
65370;SDS011;58485;59.934;30.352;2022-08-01T04:31:07;2.45;;;2.25;;
65370;SDS011;58485;59.934;30.352;2022-08-01T04:32:02;5.05;;;2.60;;
65370;SDS011;58485;59.934;30.352;2022-08-01T04:32:54;2.90;;;2.70;;
65370;SDS011;58485;59.934;30.352;2022-08-01T04:33:49;4.40;;;2.63;;
65370;SDS011;58485;59.934;30.352;2022-08-01T04:34:44;3.08;;;2.83;;
65370;SDS011;58485;59.934;30.352;2022-08-01T04:35:39;2.75;;;2.55;;
65370;SDS011;58485;59.934;30.352;2022-08-01T04:36:34;2.85;;;2.60;;
65370;SDS011;58485;59.934;30.352;2022-08-01T04:37:32;2.65;;;2.53;;
65370;SDS011;58485;59.934;30.352;2022-08-01T04:38:27;2.88;;;2.67;;
65370;SDS011;58485;59.934;30.352;2022-08-01T04:39:23;2.70;;;2.45;;
65370;SDS011;58485;59.934;30.352;2022-08-01T04:40:17;2.90;;;2.70;;
65370;SDS011;58485;59.934;30.352;2022-08-01T04:41:12;2.60;;;2.40;;
65370;SDS011;58485;59.934;30.352;2022-08-01T04:42:05;2.85;;;2.45;;
65370;SDS011;58485;59.934;30.352;2022-08-01T04:42:58;3.33;;;3.03;;
65370;SDS011;58485;59.934;30.352;2022-08-01T04:43:50;3.15;;;2.72;;
65370;SDS011;58485;59.934;30.352;2022-08-01T04:44:44;3.28;;;2.97;;
65370;SDS011;58485;59.934;30.352;2022-08-01T04:45:35;2.78;;;2.58;;
65370;SDS011;58485;59.934;30.352;2022-08-01T04:46:28;3.15;;;2.85;;
65370;SDS011;58485;59.934;30.352;2022-08-01T04:47:20;2.60;;;2.40;;
65370;SDS011;58485;59.934;30.352;2022-08-01T04:48:13;2.90;;;2.70;;
65370;SDS011;58485;59.934;30.352;2022-08-01T04:49:07;3.17;;;2.92;;
65370;SDS011;58485;59.934;30.352;2022-08-01T04:50:00;2.92;;;2.50;;
65370;SDS011;58485;59.934;30.352;2022-08-01T04:50:58;3.47;;;2.40;;
65370;SDS011;58485;59.934;30.352;2022-08-01T04:51:50;3.22;;;2.88;;
65370;SDS011;58485;59.934;30.352;2022-08-01T04:52:47;3.08;;;2.80;;
65370;SDS011;58485;59.934;30.352;2022-08-01T04:53:41;4.25;;;2.75;;
65370;SDS011;58485;59.934;30.352;2022-08-01T04:54:33;4.90;;;2.55;;
65370;SDS011;58485;59.934;30.352;2022-08-01T04:55:28;3.72;;;2.45;;
65370;SDS011;58485;59.934;30.352;2022-08-01T04:56:21;3.05;;;2.85;;
65370;SDS011;58485;59.934;30.352;2022-08-01T04:57:13;2.75;;;2.55;;
65370;SDS011;58485;59.934;30.352;2022-08-01T04:58:05;3.60;;;2.28;;
65370;SDS011;58485;59.934;30.352;2022-08-01T04:58:57;4.35;;;2.60;;
65370;SDS011;58485;59.934;30.352;2022-08-01T05:00:07;3.38;;;2.70;;
65370;SDS011;58485;59.934;30.352;2022-08-01T05:01:00;2.78;;;2.58;;
65370;SDS011;58485;59.934;30.352;2022-08-01T05:01:51;2.45;;;2.25;;
65370;SDS011;58485;59.934;30.352;2022-08-01T05:02:44;4.28;;;2.58;;
65370;SDS011;58485;59.934;30.352;2022-08-01T05:03:36;2.70;;;2.50;;
65370;SDS011;58485;59.934;30.352;2022-08-01T05:04:29;2.55;;;2.35;;
65370;SDS011;58485;59.934;30.352;2022-08-01T05:05:20;3.63;;;3.22;;
65370;SDS011;58485;59.934;30.352;2022-08-01T05:06:14;2.95;;;2.50;;
65370;SDS011;58485;59.934;30.352;2022-08-01T05:07:05;2.50;;;2.30;;
65370;SDS011;58485;59.934;30.352;2022-08-01T05:07:58;2.88;;;2.67;;
65370;SDS011;58485;59.934;30.352;2022-08-01T05:08:50;2.30;;;2.10;;
65370;SDS011;58485;59.934;30.352;2022-08-01T05:09:42;6.88;;;2.50;;
65370;SDS011;58485;59.934;30.352;2022-08-01T05:10:36;3.80;;;2.45;;
65370;SDS011;58485;59.934;30.352;2022-08-01T05:11:28;2.92;;;2.72;;
65370;SDS011;58485;59.934;30.352;2022-08-01T05:12:20;2.90;;;2.53;;
65370;SDS011;58485;59.934;30.352;2022-08-01T05:13:13;2.85;;;2.45;;
65370;SDS011;58485;59.934;30.352;2022-08-01T05:14:04;3.08;;;2.47;;
65370;SDS011;58485;59.934;30.352;2022-08-01T05:14:56;3.65;;;2.47;;
65370;SDS011;58485;59.934;30.352;2022-08-01T05:15:48;4.35;;;2.60;;
65370;SDS011;58485;59.934;30.352;2022-08-01T05:16:40;3.08;;;2.80;;
65370;SDS011;58485;59.934;30.352;2022-08-01T05:17:32;2.28;;;2.10;;
65370;SDS011;58485;59.934;30.352;2022-08-01T05:18:24;3.00;;;2.42;;
65370;SDS011;58485;59.934;30.352;2022-08-01T05:19:15;2.88;;;2.67;;
65370;SDS011;58485;59.934;30.352;2022-08-01T05:20:08;2.88;;;2.67;;
65370;SDS011;58485;59.934;30.352;2022-08-01T05:21:01;2.78;;;2.58;;
65370;SDS011;58485;59.934;30.352;2022-08-01T05:21:55;2.50;;;2.30;;